New York, NY

4:29 AM EDT on May 25, 2015 (GMT -0400)
Central Park | | Change Station
CLOSE
Current Station
Airport
Location: Central Park,
Elevation: 154 ft
Nearby Weather Stations

Elev 154 ft 40.78 °N, 73.97 °W | Updated 38 minutes ago

Clear
Clear
65 °F
Feels Like 65 °F
N
6
Wind Variable Wind from West

Today
High -- | Low -- °F
--% Chance of Precip.
Yesterday
High -- | Low -- °F
Precip. -- in
5:30 AM 8:15 PM
Waxing Crescent, 46% visible
Pressure 30.26 in
Visibility 10.0 miles
Clouds Clear
Dew Point 52 °F
Humidity 63%
Rainfall 0.00 in
Snow Depth Not available.
UV 0 out of 12
Pollen 9.00 out of 12
Air Quality Not available.
Flu Activity Widespread
METAR KNYC 250751Z AUTO 26005KT 10SM CLR 18/11 A3028 RMK AO2 SLP245 T01830111

More Conditions Fewer Conditions

Pressure 30.26 in
Visibility 10.0 miles
Clouds Clear
Dew Point 52 °F
Humidity 63%
Rainfall 0.00 in
Snow Depth Not available.
UV 0 out of 12
Pollen 9.00 out of 12
Air Quality Not available.
Flu Activity Widespread
METAR KNYC 250751Z AUTO 26005KT 10SM CLR 18/11 A3028 RMK AO2 SLP245 T01830111

More Conditions Fewer Conditions

10-Day Weather Forecast

Almanac

Astronomy

May. 25, 2015 Rise Set
Actual Time
Civil Twilight
Nautical Twilight
Astronomical Twilight
Moon
Length of Visible Light
Length of Day
Tomorrow will be .
, % of the Moon is Illuminated

Today's Extremes

State Highs State Lows

Community

WunderPhotos

Upload Photos

1,823,959 photos uploaded!

WunderBlogs® & News

Nearby

Air Quality

  Air Quality AQ Index Pollutant
Not available.

Snow Depth

Station Depth Elevation

Earthquake Activity

City Distance Mag. Time & Date
Minimum magnitude displayed is 2.5.

Coastal Water Temperatures

Place Temperature

Stations

Nearby Weather Stations

Station Location Temp. Windchill Dew Point Humidity Wind Precip. Elev Updated Type